Time;durP1;ratioP1;P1;durP2;ratioP2;P2;SDS_P1;SDS_P2;PMS_P1;PMS_P2;Temp;Humidity;BMP_temperature;BMP_pressure;BME280_temperature;BME280_humidity;BME280_pressure;Samples;Min_cycle;Max_cycle;Signal;HPM_P1;HPM_P2
2022/09/17 00:01:05;;;;;;;11.30;2.05;;;;;;;;;;5052080;28;20130;-69
2022/09/17 00:03:35;;;;;;;15.25;2.55;;;;;;;;;;5051748;28;20043;-69
2022/09/17 00:06:05;;;;;;;13.88;2.05;;;;;;;;;;5052421;28;20037;-74
2022/09/17 00:08:32;;;;;;;15.50;1.80;;;;;;;;;;5052544;28;20122;-69
2022/09/17 00:11:05;;;;;;;13.43;1.80;;;;;;;;;;5051749;28;20045;-69
2022/09/17 00:13:31;;;;;;;14.13;2.08;;;;;;;;;;5035514;28;20037;-70
2022/09/17 00:15:57;;;;;;;16.30;2.15;;;;;;;;;;5052874;28;20112;-69
2022/09/17 00:18:23;;;;;;;14.30;1.92;;;;;;;;;;5051749;28;20053;-74
2022/09/17 00:20:49;;;;;;;12.07;1.77;;;;;;;;;;5059416;28;20489;-74
2022/09/17 00:23:15;;;;;;;10.98;1.73;;;;;;;;;;5044798;28;20091;-73
2022/09/17 00:25:42;;;;;;;13.90;2.70;;;;;;;;;;5053654;28;20041;-68
2022/09/17 00:28:09;;;;;;;11.35;2.03;;;;;;;;;;5045600;28;20068;-72
2022/09/17 00:30:35;;;;;;;11.63;2.00;;;;;;;;;;5052304;28;20052;-73
2022/09/17 00:33:01;;;;;;;17.30;1.88;;;;;;;;;;5053641;28;20087;-73
2022/09/17 00:35:27;;;;;;;12.18;1.95;;;;;;;;;;5035591;28;20045;-74
2022/09/17 00:37:53;;;;;;;14.05;1.83;;;;;;;;;;5060579;28;20090;-73
2022/09/17 00:40:20;;;;;;;10.95;1.40;;;;;;;;;;5071289;28;20040;-69
2022/09/17 00:42:46;;;;;;;10.98;1.90;;;;;;;;;;5064924;28;20033;-73
2022/09/17 00:45:13;;;;;;;10.02;2.13;;;;;;;;;;5064293;28;20080;-69
2022/09/17 00:47:39;;;;;;;14.50;1.70;;;;;;;;;;5067897;28;20044;-74
2022/09/17 00:50:14;;;;;;;14.18;1.75;;;;;;;;;;5052927;28;20044;-68
2022/09/17 00:52:49;;;;;;;13.20;1.50;;;;;;;;;;5066938;28;20045;-69
2022/09/17 00:55:21;;;;;;;14.23;2.13;;;;;;;;;;5061892;28;20131;-68
2022/09/17 00:57:48;;;;;;;15.18;1.80;;;;;;;;;;5070817;28;20079;-68
2022/09/17 01:00:15;;;;;;;12.70;1.70;;;;;;;;;;5071454;28;20485;-74
2022/09/17 01:02:41;;;;;;;12.07;1.95;;;;;;;;;;5057049;28;20052;-68
2022/09/17 01:05:08;;;;;;;12.60;1.77;;;;;;;;;;5070330;28;20059;-75
2022/09/17 01:07:52;;;;;;;12.35;1.85;;;;;;;;;;5056853;28;20045;-74
2022/09/17 01:10:37;;;;;;;16.23;1.60;;;;;;;;;;5051718;28;20057;-74
2022/09/17 01:13:12;;;;;;;12.27;2.00;;;;;;;;;;5052938;28;20041;-74
2022/09/17 01:15:51;;;;;;;15.55;1.90;;;;;;;;;;5068272;28;20045;-74
2022/09/17 01:18:21;;;;;;;14.23;1.85;;;;;;;;;;5053043;28;20519;-74
2022/09/17 01:20:59;;;;;;;15.88;2.15;;;;;;;;;;5052746;28;20045;-73
2022/09/17 01:23:49;;;;;;;14.40;2.55;;;;;;;;;;5065896;28;20393;-73
2022/09/17 01:26:35;;;;;;;14.07;1.42;;;;;;;;;;5051377;28;20048;-73
2022/09/17 01:29:07;;;;;;;7.72;1.35;;;;;;;;;;5049153;28;20555;-68
2022/09/17 01:31:44;;;;;;;15.77;1.80;;;;;;;;;;5054729;28;20052;-74
2022/09/17 01:34:10;;;;;;;9.32;1.65;;;;;;;;;;5062132;28;20052;-73
2022/09/17 01:36:50;;;;;;;11.90;1.48;;;;;;;;;;5052694;28;20041;-73
2022/09/17 01:39:29;;;;;;;16.02;2.00;;;;;;;;;;5051713;28;20036;-74
2022/09/17 01:42:14;;;;;;;10.10;1.67;;;;;;;;;;5065314;28;20045;-73
2022/09/17 01:44:53;;;;;;;10.37;1.47;;;;;;;;;;5051212;28;20572;-74
2022/09/17 01:47:23;;;;;;;10.18;1.10;;;;;;;;;;5034814;28;20052;-73
2022/09/17 01:49:54;;;;;;;10.45;1.40;;;;;;;;;;5062762;28;20052;-74
2022/09/17 01:52:20;;;;;;;13.30;1.90;;;;;;;;;;5054144;28;20045;-74
2022/09/17 01:54:49;;;;;;;9.95;1.50;;;;;;;;;;5034101;28;20072;-69
2022/09/17 01:57:19;;;;;;;10.57;1.30;;;;;;;;;;5064612;28;20505;-73
2022/09/17 01:59:50;;;;;;;5.82;1.40;;;;;;;;;;5052010;28;20041;-74
2022/09/17 02:02:20;;;;;;;11.10;1.52;;;;;;;;;;5060737;28;20109;-74
2022/09/17 02:04:51;;;;;;;9.98;1.40;;;;;;;;;;5052895;28;20045;-73
2022/09/17 02:07:19;;;;;;;12.15;1.30;;;;;;;;;;5050693;28;20048;-74
2022/09/17 02:09:58;;;;;;;9.23;1.13;;;;;;;;;;5052543;28;20053;-73
2022/09/17 02:12:28;;;;;;;13.77;1.50;;;;;;;;;;5060559;28;20041;-73
2022/09/17 02:14:57;;;;;;;11.70;1.33;;;;;;;;;;5032437;28;20406;-73
2022/09/17 02:17:32;;;;;;;9.93;1.73;;;;;;;;;;5048215;28;20504;-73
2022/09/17 02:19:59;;;;;;;6.88;0.95;;;;;;;;;;5055024;28;20069;-73
2022/09/17 02:22:44;;;;;;;9.60;1.30;;;;;;;;;;5054980;28;20059;-74
2022/09/17 02:25:14;;;;;;;8.15;1.30;;;;;;;;;;5050433;28;20524;-73
2022/09/17 02:27:52;;;;;;;8.40;1.20;;;;;;;;;;5056664;28;20040;-73
2022/09/17 02:30:18;;;;;;;10.32;1.17;;;;;;;;;;5054292;28;20056;-69
2022/09/17 02:32:45;;;;;;;11.43;1.60;;;;;;;;;;5048609;28;20040;-69
2022/09/17 02:35:13;;;;;;;9.55;1.50;;;;;;;;;;5074455;28;20048;-68
2022/09/17 02:37:40;;;;;;;9.45;1.23;;;;;;;;;;5074731;28;20052;-69
2022/09/17 02:40:06;;;;;;;9.02;1.23;;;;;;;;;;5075108;28;20044;-68
2022/09/17 02:42:35;;;;;;;8.57;1.27;;;;;;;;;;5073072;28;20040;-69
2022/09/17 02:45:01;;;;;;;12.68;1.52;;;;;;;;;;5074484;28;20045;-69
2022/09/17 02:47:27;;;;;;;13.02;1.75;;;;;;;;;;5074540;28;20062;-69
2022/09/17 02:50:13;;;;;;;10.75;1.40;;;;;;;;;;5074810;28;20041;-69
2022/09/17 02:52:57;;;;;;;14.20;1.40;;;;;;;;;;5075016;28;20440;-69
2022/09/17 02:55:44;;;;;;;8.18;1.15;;;;;;;;;;5072674;28;20449;-68
2022/09/17 02:58:16;;;;;;;10.75;1.20;;;;;;;;;;5053144;28;20102;-68
2022/09/17 03:00:43;;;;;;;10.73;1.80;;;;;;;;;;5074321;28;20033;-69
2022/09/17 03:03:21;;;;;;;12.38;1.60;;;;;;;;;;5074535;28;20049;-69
2022/09/17 03:05:48;;;;;;;12.98;1.17;;;;;;;;;;5070919;28;20501;-69
2022/09/17 03:08:15;;;;;;;16.05;2.25;;;;;;;;;;5062352;28;20045;-68
2022/09/17 03:10:42;;;;;;;9.07;1.27;;;;;;;;;;5072734;28;20039;-69
2022/09/17 03:13:08;;;;;;;9.13;1.20;;;;;;;;;;5073345;28;20052;-68
2022/09/17 03:15:34;;;;;;;15.88;2.22;;;;;;;;;;5043146;28;20056;-74
2022/09/17 03:18:00;;;;;;;10.48;1.42;;;;;;;;;;5054050;28;20076;-73
2022/09/17 03:20:26;;;;;;;9.63;1.25;;;;;;;;;;5055240;28;20037;-74
2022/09/17 03:22:52;;;;;;;13.27;1.70;;;;;;;;;;5053786;28;20111;-73
2022/09/17 03:25:18;;;;;;;12.10;1.85;;;;;;;;;;5054181;28;20436;-73
2022/09/17 03:27:44;;;;;;;11.00;1.50;;;;;;;;;;5053532;28;20044;-74
2022/09/17 03:30:10;;;;;;;11.57;1.50;;;;;;;;;;5055084;28;20048;-73
2022/09/17 03:32:36;;;;;;;11.82;1.60;;;;;;;;;;5037101;28;20049;-73
2022/09/17 03:35:02;;;;;;;10.52;1.40;;;;;;;;;;5055352;28;20056;-69
2022/09/17 03:37:30;;;;;;;10.85;1.50;;;;;;;;;;5072246;28;20040;-68
2022/09/17 03:39:56;;;;;;;11.68;1.85;;;;;;;;;;5072774;28;20374;-69
2022/09/17 03:42:22;;;;;;;11.95;1.52;;;;;;;;;;5072383;28;20457;-68
2022/09/17 03:44:48;;;;;;;12.23;1.52;;;;;;;;;;5055677;28;20119;-68
2022/09/17 03:47:15;;;;;;;10.20;1.40;;;;;;;;;;5059289;28;20485;-68
2022/09/17 03:49:41;;;;;;;11.23;1.30;;;;;;;;;;5073100;28;20420;-73
2022/09/17 03:52:07;;;;;;;8.73;1.70;;;;;;;;;;5057755;28;20494;-73
2022/09/17 03:54:34;;;;;;;15.75;1.50;;;;;;;;;;5054339;28;20504;-73
2022/09/17 03:57:00;;;;;;;8.57;1.58;;;;;;;;;;5053407;28;20493;-73
2022/09/17 03:59:26;;;;;;;13.27;1.60;;;;;;;;;;5053142;28;20045;-73
2022/09/17 04:01:52;;;;;;;15.45;1.70;;;;;;;;;;5052965;28;20053;-73
2022/09/17 04:04:18;;;;;;;14.63;1.83;;;;;;;;;;5052981;28;20049;-73
2022/09/17 04:06:44;;;;;;;12.32;1.60;;;;;;;;;;5052521;28;20049;-73
2022/09/17 04:09:10;;;;;;;11.80;1.88;;;;;;;;;;5054199;28;20051;-73
2022/09/17 04:11:36;;;;;;;9.43;1.55;;;;;;;;;;5054265;28;20115;-73
2022/09/17 04:14:02;;;;;;;9.15;1.67;;;;;;;;;;5054244;28;20394;-73
2022/09/17 04:16:28;;;;;;;16.25;1.70;;;;;;;;;;5054070;28;20086;-73
2022/09/17 04:18:54;;;;;;;10.13;1.33;;;;;;;;;;5045894;28;20040;-73
2022/09/17 04:21:20;;;;;;;10.45;1.50;;;;;;;;;;5053914;28;20029;-73
2022/09/17 04:23:46;;;;;;;10.65;1.90;;;;;;;;;;5033294;28;20140;-73
2022/09/17 04:26:13;;;;;;;12.82;1.80;;;;;;;;;;5049718;28;20036;-73
2022/09/17 04:28:39;;;;;;;10.40;1.75;;;;;;;;;;5053074;28;20052;-73
2022/09/17 04:31:05;;;;;;;9.25;1.42;;;;;;;;;;5064659;28;20029;-68
2022/09/17 04:33:31;;;;;;;13.93;1.60;;;;;;;;;;5073287;28;20115;-74
2022/09/17 04:35:57;;;;;;;12.80;1.60;;;;;;;;;;5046213;28;20037;-73
2022/09/17 04:38:23;;;;;;;10.27;1.80;;;;;;;;;;5053591;28;20124;-69
2022/09/17 04:40:50;;;;;;;14.20;1.40;;;;;;;;;;5058368;28;20060;-69
2022/09/17 04:43:16;;;;;;;12.05;1.50;;;;;;;;;;5071741;28;20049;-68
2022/09/17 04:45:46;;;;;;;14.57;1.67;;;;;;;;;;5054371;28;20534;-68
2022/09/17 04:48:12;;;;;;;10.57;1.40;;;;;;;;;;5087808;28;20044;-68
2022/09/17 04:50:39;;;;;;;12.65;2.00;;;;;;;;;;5038102;28;20055;-68
2022/09/17 04:53:05;;;;;;;8.15;1.50;;;;;;;;;;5071273;28;20075;-69
2022/09/17 04:55:31;;;;;;;10.38;1.67;;;;;;;;;;5070611;28;20048;-68
2022/09/17 04:57:57;;;;;;;16.08;2.28;;;;;;;;;;5054173;28;20044;-68
2022/09/17 05:00:23;;;;;;;13.90;2.00;;;;;;;;;;5071148;28;20046;-69
2022/09/17 05:02:51;;;;;;;10.40;1.80;;;;;;;;;;5070655;28;20060;-69
2022/09/17 05:05:20;;;;;;;9.98;2.08;;;;;;;;;;5054849;28;20049;-68
2022/09/17 05:07:46;;;;;;;10.43;1.17;;;;;;;;;;5056601;28;20036;-73
2022/09/17 05:10:13;;;;;;;11.75;1.60;;;;;;;;;;5072261;28;20040;-73
2022/09/17 05:12:39;;;;;;;11.52;1.88;;;;;;;;;;5055789;28;20040;-73
2022/09/17 05:15:06;;;;;;;8.98;1.67;;;;;;;;;;5052043;28;20044;-73
2022/09/17 05:17:32;;;;;;;12.95;1.85;;;;;;;;;;5051792;28;20045;-73
2022/09/17 05:19:58;;;;;;;12.38;2.22;;;;;;;;;;5052023;28;20102;-73
2022/09/17 05:22:24;;;;;;;13.57;1.60;;;;;;;;;;5053069;28;20477;-73
2022/09/17 05:24:50;;;;;;;11.65;1.42;;;;;;;;;;5052827;28;20048;-74
2022/09/17 05:27:16;;;;;;;13.70;1.40;;;;;;;;;;5051979;28;20037;-73
2022/09/17 05:29:44;;;;;;;12.25;1.38;;;;;;;;;;5035440;28;20485;-73
2022/09/17 05:32:10;;;;;;;9.07;1.45;;;;;;;;;;5032241;28;20513;-73
2022/09/17 05:34:36;;;;;;;10.63;1.30;;;;;;;;;;5045177;28;20080;-74
2022/09/17 05:37:02;;;;;;;10.18;1.30;;;;;;;;;;5038585;28;20029;-69
2022/09/17 05:39:28;;;;;;;8.93;1.20;;;;;;;;;;5070828;28;20465;-68
2022/09/17 05:41:54;;;;;;;8.20;1.08;;;;;;;;;;5053817;28;20527;-68
2022/09/17 05:44:22;;;;;;;11.77;2.00;;;;;;;;;;5072188;28;20036;-68
2022/09/17 05:46:48;;;;;;;7.40;1.30;;;;;;;;;;5071356;28;20052;-69
2022/09/17 05:49:14;;;;;;;8.48;1.08;;;;;;;;;;5071433;28;20044;-69
2022/09/17 05:51:41;;;;;;;8.77;1.13;;;;;;;;;;5071636;28;20382;-69
2022/09/17 05:54:08;;;;;;;8.93;1.10;;;;;;;;;;5074420;28;20098;-68
2022/09/17 05:56:34;;;;;;;11.20;1.20;;;;;;;;;;5075050;28;20052;-68
2022/09/17 05:59:00;;;;;;;16.02;2.00;;;;;;;;;;5075260;28;20059;-73
2022/09/17 06:01:26;;;;;;;7.03;1.05;;;;;;;;;;5076149;28;20555;-68
2022/09/17 06:03:52;;;;;;;11.90;1.20;;;;;;;;;;5075296;28;20129;-69
2022/09/17 06:06:18;;;;;;;7.78;1.50;;;;;;;;;;5091574;28;20389;-69
2022/09/17 06:08:44;;;;;;;12.57;1.45;;;;;;;;;;5074389;28;20519;-69
2022/09/17 06:11:10;;;;;;;10.10;1.35;;;;;;;;;;5074556;28;20044;-69
2022/09/17 06:13:37;;;;;;;7.85;1.20;;;;;;;;;;5075711;28;20036;-69
2022/09/17 06:16:03;;;;;;;10.20;1.42;;;;;;;;;;5055115;28;20041;-73
2022/09/17 06:18:30;;;;;;;15.35;1.40;;;;;;;;;;5055470;28;20045;-73
2022/09/17 06:21:00;;;;;;;9.48;1.88;;;;;;;;;;5054897;28;20040;-74
2022/09/17 06:23:26;;;;;;;9.70;1.90;;;;;;;;;;5056699;28;20033;-74
2022/09/17 06:25:59;;;;;;;8.45;1.40;;;;;;;;;;5038369;28;20055;-72
2022/09/17 06:28:26;;;;;;;9.82;1.30;;;;;;;;;;5055088;28;20526;-73
2022/09/17 06:30:53;;;;;;;9.52;1.10;;;;;;;;;;5055157;28;20104;-73
2022/09/17 06:33:23;;;;;;;5.40;1.15;;;;;;;;;;5055289;28;20418;-73
2022/09/17 06:35:49;;;;;;;9.90;1.10;;;;;;;;;;5054635;28;20065;-73
2022/09/17 06:38:15;;;;;;;11.07;1.20;;;;;;;;;;5056173;28;20489;-74
2022/09/17 06:40:41;;;;;;;10.40;1.65;;;;;;;;;;5056260;28;20112;-74
2022/09/17 06:43:07;;;;;;;6.95;1.20;;;;;;;;;;5054721;28;20044;-74
2022/09/17 06:45:33;;;;;;;10.40;1.45;;;;;;;;;;5055755;28;20144;-74
2022/09/17 06:48:03;;;;;;;5.72;1.00;;;;;;;;;;5055777;28;20049;-74
2022/09/17 06:50:30;;;;;;;6.13;1.05;;;;;;;;;;5054823;28;20127;-74
2022/09/17 06:52:56;;;;;;;9.68;1.75;;;;;;;;;;5055884;28;20044;-74
2022/09/17 06:55:22;;;;;;;5.57;1.20;;;;;;;;;;5054512;28;20134;-74
2022/09/17 06:57:48;;;;;;;9.80;1.05;;;;;;;;;;5054748;28;20485;-74
2022/09/17 07:00:14;;;;;;;8.65;1.25;;;;;;;;;;5054542;28;20041;-74
2022/09/17 07:02:41;;;;;;;10.10;1.08;;;;;;;;;;5054179;28;20057;-74
2022/09/17 07:05:07;;;;;;;6.38;1.10;;;;;;;;;;5054569;28;20063;-74
2022/09/17 07:07:34;;;;;;;7.03;0.98;;;;;;;;;;5035026;28;20045;-74
2022/09/17 07:10:01;;;;;;;6.60;1.00;;;;;;;;;;5023665;28;20048;-74
2022/09/17 07:12:27;;;;;;;6.40;0.90;;;;;;;;;;5035931;28;20060;-75
2022/09/17 07:14:53;;;;;;;4.40;0.70;;;;;;;;;;5053656;28;20128;-74
2022/09/17 07:17:20;;;;;;;4.32;0.70;;;;;;;;;;5054150;28;20048;-75
2022/09/17 07:19:46;;;;;;;7.35;0.98;;;;;;;;;;5039535;28;20036;-75
2022/09/17 07:22:13;;;;;;;6.25;0.90;;;;;;;;;;5066078;28;20396;-74
2022/09/17 07:24:39;;;;;;;3.03;0.73;;;;;;;;;;5069320;28;20457;-70
2022/09/17 07:27:05;;;;;;;3.78;0.73;;;;;;;;;;5063642;28;20041;-75
2022/09/17 07:29:31;;;;;;;7.28;0.90;;;;;;;;;;5056503;28;20087;-74
2022/09/17 07:31:58;;;;;;;6.40;1.00;;;;;;;;;;5053772;28;20562;-75
2022/09/17 07:34:27;;;;;;;5.43;0.95;;;;;;;;;;5053773;28;20049;-74
2022/09/17 07:36:53;;;;;;;4.50;1.05;;;;;;;;;;5056592;28;20457;-75
2022/09/17 07:39:19;;;;;;;7.60;1.30;;;;;;;;;;5064227;28;20047;-74
2022/09/17 07:41:46;;;;;;;5.88;1.00;;;;;;;;;;5068712;28;20036;-75
2022/09/17 07:44:12;;;;;;;5.95;1.27;;;;;;;;;;5060776;28;20045;-74
2022/09/17 07:46:38;;;;;;;6.72;0.98;;;;;;;;;;5043268;28;20064;-75
2022/09/17 07:49:04;;;;;;;3.55;0.70;;;;;;;;;;5067057;28;20472;-75
2022/09/17 07:51:30;;;;;;;4.45;0.90;;;;;;;;;;5064563;28;20048;-74
2022/09/17 07:53:57;;;;;;;4.75;0.90;;;;;;;;;;5055184;28;20033;-75
2022/09/17 07:56:24;;;;;;;6.60;0.90;;;;;;;;;;5053047;28;20045;-74
2022/09/17 07:58:50;;;;;;;6.40;0.80;;;;;;;;;;5036181;28;20512;-75
2022/09/17 08:01:17;;;;;;;6.63;0.90;;;;;;;;;;5052157;28;20037;-74
2022/09/17 08:03:47;;;;;;;2.90;0.60;;;;;;;;;;5054415;28;20510;-75
2022/09/17 08:06:14;;;;;;;5.97;0.75;;;;;;;;;;5067643;28;20540;-75
2022/09/17 08:08:41;;;;;;;6.47;1.02;;;;;;;;;;5065590;28;20044;-74
2022/09/17 08:11:08;;;;;;;10.43;0.90;;;;;;;;;;5054893;28;20082;-75
2022/09/17 08:13:34;;;;;;;3.65;0.60;;;;;;;;;;5052815;28;20048;-75
2022/09/17 08:16:01;;;;;;;6.90;0.90;;;;;;;;;;5051268;28;20151;-70
2022/09/17 08:18:28;;;;;;;6.38;0.70;;;;;;;;;;5061582;28;20076;-70
2022/09/17 08:21:01;;;;;;;5.45;0.90;;;;;;;;;;5071445;28;20074;-70
2022/09/17 08:23:28;;;;;;;8.30;1.05;;;;;;;;;;5072310;28;20508;-74
2022/09/17 08:25:55;;;;;;;4.32;0.95;;;;;;;;;;5071267;28;20136;-70
2022/09/17 08:28:21;;;;;;;7.82;1.10;;;;;;;;;;5057570;28;20094;-70
2022/09/17 08:30:49;;;;;;;6.20;0.85;;;;;;;;;;5071434;28;20055;-70
2022/09/17 08:33:15;;;;;;;8.02;1.08;;;;;;;;;;5071512;28;20048;-71
2022/09/17 08:35:41;;;;;;;6.20;0.75;;;;;;;;;;5071944;28;20053;-71
2022/09/17 08:38:08;;;;;;;8.88;0.90;;;;;;;;;;5054536;28;20045;-69
2022/09/17 08:40:39;;;;;;;3.95;0.60;;;;;;;;;;5054691;28;20082;-69
2022/09/17 08:43:05;;;;;;;6.75;0.90;;;;;;;;;;5071512;28;20051;-69
2022/09/17 08:45:31;;;;;;;6.43;0.80;;;;;;;;;;5071514;28;20074;-69
2022/09/17 08:48:03;;;;;;;3.67;0.70;;;;;;;;;;5072548;28;20048;-70
2022/09/17 08:50:38;;;;;;;4.75;0.80;;;;;;;;;;5071389;28;20504;-70
2022/09/17 08:53:17;;;;;;;6.15;1.00;;;;;;;;;;5072175;28;20048;-70
2022/09/17 08:55:51;;;;;;;6.07;1.60;;;;;;;;;;5072859;28;20037;-71
2022/09/17 08:58:34;;;;;;;5.25;1.17;;;;;;;;;;5070712;28;20040;-70
2022/09/17 09:01:09;;;;;;;6.82;0.98;;;;;;;;;;5064927;28;20086;-70
2022/09/17 09:03:54;;;;;;;5.65;1.02;;;;;;;;;;5064303;28;20048;-71
2022/09/17 09:06:22;;;;;;;6.35;1.08;;;;;;;;;;5046029;28;20051;-74
2022/09/17 09:08:51;;;;;;;5.55;0.70;;;;;;;;;;5071292;28;20044;-75
2022/09/17 09:11:21;;;;;;;5.25;0.93;;;;;;;;;;5054679;28;20057;-74
2022/09/17 09:13:49;;;;;;;6.20;0.98;;;;;;;;;;5052807;28;20045;-75
2022/09/17 09:16:17;;;;;;;5.85;1.20;;;;;;;;;;5051227;28;20053;-75
2022/09/17 09:18:44;;;;;;;6.32;1.00;;;;;;;;;;5052629;28;20045;-75
2022/09/17 09:21:22;;;;;;;7.30;1.00;;;;;;;;;;5031352;28;20127;-75
2022/09/17 09:23:57;;;;;;;6.05;0.90;;;;;;;;;;5054696;28;20044;-76
2022/09/17 09:26:44;;;;;;;5.18;0.90;;;;;;;;;;5052530;28;20052;-75
2022/09/17 09:29:22;;;;;;;6.25;1.00;;;;;;;;;;5050825;28;20041;-75
2022/09/17 09:32:03;;;;;;;7.03;1.08;;;;;;;;;;5066774;28;20546;-76
2022/09/17 09:34:31;;;;;;;6.35;1.00;;;;;;;;;;5051606;28;20127;-75
2022/09/17 09:37:14;;;;;;;4.10;0.95;;;;;;;;;;5069156;28;20512;-75
2022/09/17 09:39:40;;;;;;;3.95;0.95;;;;;;;;;;5072314;28;20087;-76
2022/09/17 09:42:14;;;;;;;7.63;1.48;;;;;;;;;;5052630;28;20393;-76
2022/09/17 09:44:40;;;;;;;5.65;1.05;;;;;;;;;;5052464;28;20037;-75
2022/09/17 09:47:12;;;;;;;6.70;1.30;;;;;;;;;;5064943;28;20041;-75
2022/09/17 09:49:57;;;;;;;10.57;1.33;;;;;;;;;;5062023;28;20040;-75
2022/09/17 09:52:31;;;;;;;6.10;1.23;;;;;;;;;;5048900;28;20094;-76
2022/09/17 09:54:57;;;;;;;7.50;1.38;;;;;;;;;;5051060;28;20059;-76
2022/09/17 09:57:38;;;;;;;5.28;1.13;;;;;;;;;;5068856;28;20088;-76
2022/09/17 10:00:20;;;;;;;5.72;1.10;;;;;;;;;;5070627;28;20044;-74
2022/09/17 10:02:47;;;;;;;6.10;0.93;;;;;;;;;;5038581;28;20041;-75
2022/09/17 10:05:13;;;;;;;4.20;0.80;;;;;;;;;;5034527;28;20040;-76
2022/09/17 10:07:43;;;;;;;3.80;0.80;;;;;;;;;;5070579;28;20153;-76
2022/09/17 10:10:09;;;;;;;5.53;1.00;;;;;;;;;;5070056;28;20136;-74
2022/09/17 10:12:36;;;;;;;7.03;1.10;;;;;;;;;;5072218;28;20039;-76
2022/09/17 10:15:34;;;;;;;6.95;1.23;;;;;;;;;;5054674;28;20036;-75
2022/09/17 10:18:20;;;;;;;6.53;1.10;;;;;;;;;;5049002;28;20545;-75
2022/09/17 10:20:50;;;;;;;5.35;1.10;;;;;;;;;;5039613;28;20049;-75
2022/09/17 10:23:16;;;;;;;6.85;1.20;;;;;;;;;;5070440;28;20457;-71
2022/09/17 10:25:43;;;;;;;4.53;1.00;;;;;;;;;;5070458;28;20080;-72
2022/09/17 10:28:21;;;;;;;9.25;1.10;;;;;;;;;;5056279;28;20420;-71
2022/09/17 10:30:57;;;;;;;5.95;1.40;;;;;;;;;;5071331;28;20131;-70
2022/09/17 10:33:26;;;;;;;6.05;1.23;;;;;;;;;;5069850;28;20136;-70
2022/09/17 10:35:56;;;;;;;3.35;0.73;;;;;;;;;;5063185;28;20045;-70
2022/09/17 10:38:28;;;;;;;7.43;1.00;;;;;;;;;;5049692;28;20132;-71
2022/09/17 10:41:08;;;;;;;5.03;1.30;;;;;;;;;;5073920;28;20509;-71
2022/09/17 10:43:34;;;;;;;5.78;0.80;;;;;;;;;;5071806;28;20037;-72
2022/09/17 10:46:00;;;;;;;4.88;0.90;;;;;;;;;;5062921;28;20040;-71
2022/09/17 10:48:38;;;;;;;3.83;1.10;;;;;;;;;;5073698;28;20051;-70
2022/09/17 10:51:07;;;;;;;7.20;0.80;;;;;;;;;;5057418;28;20559;-70
2022/09/17 10:53:39;;;;;;;3.60;0.80;;;;;;;;;;5074492;28;20111;-70
2022/09/17 10:56:22;;;;;;;2.67;0.60;;;;;;;;;;5057051;28;20457;-72
2022/09/17 10:58:55;;;;;;;3.03;0.60;;;;;;;;;;5073632;28;20443;-70
2022/09/17 11:01:28;;;;;;;3.03;0.65;;;;;;;;;;5073930;28;20037;-70
2022/09/17 11:03:57;;;;;;;2.70;0.73;;;;;;;;;;5072174;28;20044;-70
2022/09/17 11:06:45;;;;;;;3.90;0.75;;;;;;;;;;5073483;28;20036;-71
2022/09/17 11:09:11;;;;;;;3.75;0.65;;;;;;;;;;5072418;28;20488;-70
2022/09/17 11:11:40;;;;;;;3.75;0.80;;;;;;;;;;5064776;28;20032;-74
2022/09/17 11:14:16;;;;;;;5.43;1.20;;;;;;;;;;5066742;28;20128;-76
2022/09/17 11:16:42;;;;;;;4.45;0.68;;;;;;;;;;5063162;28;20071;-73
2022/09/17 11:19:11;;;;;;;4.10;0.88;;;;;;;;;;5073308;28;20090;-72
2022/09/17 11:21:48;;;;;;;1.63;0.50;;;;;;;;;;5088876;28;20044;-70
2022/09/17 11:24:17;;;;;;;1.95;0.40;;;;;;;;;;5071965;28;20128;-69
2022/09/17 11:27:02;;;;;;;2.67;0.50;;;;;;;;;;5068749;28;20120;-70
2022/09/17 11:29:55;;;;;;;2.20;0.30;;;;;;;;;;5063864;28;20473;-71
2022/09/17 11:32:36;;;;;;;3.03;0.50;;;;;;;;;;5022868;28;20037;-71
2022/09/17 11:35:14;;;;;;;2.53;0.60;;;;;;;;;;5067400;28;20044;-74
2022/09/17 11:37:58;;;;;;;3.25;0.60;;;;;;;;;;5053388;28;20064;-74
2022/09/17 11:40:39;;;;;;;3.72;0.70;;;;;;;;;;5065956;28;20041;-74
2022/09/17 11:43:14;;;;;;;5.35;0.93;;;;;;;;;;5052518;28;20482;-73
2022/09/17 11:45:40;;;;;;;;;;;;;;;;;;5055729;28;20093;-75
2022/09/17 11:48:11;;;;;;;5.07;1.00;;;;;;;;;;5073612;28;20381;-75
2022/09/17 11:50:40;;;;;;;3.40;0.80;;;;;;;;;;5069867;28;20044;-74
2022/09/17 11:53:19;;;;;;;6.57;1.10;;;;;;;;;;5072969;28;20115;-74
2022/09/17 11:55:53;;;;;;;5.70;1.00;;;;;;;;;;5067611;28;20045;-74
2022/09/17 11:58:29;;;;;;;4.67;1.00;;;;;;;;;;5052263;28;20405;-75
2022/09/17 12:01:01;;;;;;;4.28;0.90;;;;;;;;;;5053386;28;20280;-74
2022/09/17 12:03:36;;;;;;;6.25;1.05;;;;;;;;;;5009998;28;1234687;-74
2022/09/17 12:06:05;;;;;;;9.02;1.35;;;;;;;;;;5053120;28;20132;-74
2022/09/17 12:08:37;;;;;;;8.38;1.30;;;;;;;;;;5053124;28;20045;-74
2022/09/17 12:11:13;;;;;;;6.95;1.02;;;;;;;;;;5057276;28;20409;-70
2022/09/17 12:13:45;;;;;;;5.95;1.17;;;;;;;;;;5072031;28;20105;-74
2022/09/17 12:16:44;;;;;;;5.97;1.15;;;;;;;;;;5053957;28;20555;-75
2022/09/17 12:19:14;;;;;;;12.63;1.50;;;;;;;;;;5045140;28;20102;-70
2022/09/17 12:21:48;;;;;;;7.05;2.05;;;;;;;;;;5071533;28;20123;-70
2022/09/17 12:24:24;;;;;;;8.13;1.40;;;;;;;;;;5073032;28;20554;-69
2022/09/17 12:27:09;;;;;;;8.77;1.40;;;;;;;;;;5067730;28;20568;-70
2022/09/17 12:29:44;;;;;;;13.05;1.63;;;;;;;;;;5064299;28;20033;-70
2022/09/17 12:32:30;;;;;;;8.65;1.98;;;;;;;;;;5044252;28;20041;-71
2022/09/17 12:34:59;;;;;;;12.13;1.65;;;;;;;;;;5071522;28;20048;-69
2022/09/17 12:37:28;;;;;;;9.68;1.73;;;;;;;;;;5055153;28;20484;-70
2022/09/17 12:39:54;;;;;;;11.57;1.40;;;;;;;;;;5055070;28;20041;-71
2022/09/17 12:42:42;;;;;;;10.45;1.77;;;;;;;;;;5058564;28;20110;-70
2022/09/17 12:45:21;;;;;;;8.75;1.52;;;;;;;;;;5058050;28;20525;-70
2022/09/17 12:47:47;;;;;;;12.70;2.42;;;;;;;;;;5054721;28;20055;-75
2022/09/17 12:50:16;;;;;;;13.02;2.00;;;;;;;;;;5057529;28;20052;-73
2022/09/17 12:53:01;;;;;;;12.35;2.05;;;;;;;;;;5065652;28;20662;-74
2022/09/17 12:55:35;;;;;;;12.25;1.50;;;;;;;;;;5067204;28;20051;-73
2022/09/17 12:58:16;;;;;;;15.20;1.90;;;;;;;;;;5064318;28;20041;-75
2022/09/17 13:00:46;;;;;;;8.35;1.80;;;;;;;;;;5052416;28;20037;-75
2022/09/17 13:03:22;;;;;;;8.60;1.88;;;;;;;;;;5060675;28;20101;-74
2022/09/17 13:05:53;;;;;;;12.23;1.67;;;;;;;;;;5071886;28;20489;-75
2022/09/17 13:08:26;;;;;;;9.60;1.70;;;;;;;;;;5071717;28;20048;-74
2022/09/17 13:10:52;;;;;;;10.85;1.40;;;;;;;;;;5068424;28;20071;-74
2022/09/17 13:13:41;;;;;;;14.15;1.65;;;;;;;;;;5059993;28;20048;-74
2022/09/17 13:16:08;;;;;;;7.95;1.58;;;;;;;;;;5057160;28;20048;-72
2022/09/17 13:18:38;;;;;;;6.88;1.20;;;;;;;;;;5071757;28;20124;-73
2022/09/17 13:21:16;;;;;;;7.80;1.20;;;;;;;;;;5040519;28;20446;-73
2022/09/17 13:23:44;;;;;;;10.25;1.50;;;;;;;;;;5061803;28;20037;-73
2022/09/17 13:26:16;;;;;;;14.35;1.70;;;;;;;;;;5069419;28;20470;-73
2022/09/17 13:28:46;;;;;;;9.65;1.48;;;;;;;;;;5058311;28;20477;-74
2022/09/17 13:31:13;;;;;;;11.10;1.38;;;;;;;;;;5070967;28;20051;-72
2022/09/17 13:33:51;;;;;;;9.27;1.40;;;;;;;;;;5049584;28;20490;-69
2022/09/17 13:36:33;;;;;;;8.95;1.58;;;;;;;;;;5062975;28;20068;-70
2022/09/17 13:39:00;;;;;;;10.02;1.50;;;;;;;;;;5044144;28;20048;-70
2022/09/17 13:41:27;;;;;;;7.30;0.90;;;;;;;;;;5070623;28;20033;-70
2022/09/17 13:43:54;;;;;;;8.63;1.33;;;;;;;;;;5070380;28;20473;-74
2022/09/17 13:46:25;;;;;;;4.63;0.82;;;;;;;;;;5071470;28;20481;-72
2022/09/17 13:48:54;;;;;;;6.70;0.98;;;;;;;;;;5071015;28;20041;-73
2022/09/17 13:51:32;;;;;;;3.80;0.73;;;;;;;;;;5071109;28;20505;-73
2022/09/17 13:54:00;;;;;;;5.10;0.68;;;;;;;;;;5054177;28;20147;-72
2022/09/17 13:56:36;;;;;;;4.82;0.60;;;;;;;;;;5035155;28;20508;-74
2022/09/17 13:59:09;;;;;;;4.22;0.73;;;;;;;;;;5069741;28;20028;-70
2022/09/17 14:01:54;;;;;;;6.03;0.70;;;;;;;;;;5053328;28;20124;-70
2022/09/17 14:04:42;;;;;;;4.53;0.80;;;;;;;;;;5070382;28;20045;-68
2022/09/17 14:07:37;;;;;;;3.50;0.68;;;;;;;;;;5070757;28;20124;-68
2022/09/17 14:10:15;;;;;;;5.50;0.80;;;;;;;;;;5067256;28;20084;-69
2022/09/17 14:12:46;;;;;;;5.15;0.80;;;;;;;;;;5069697;28;20036;-68
2022/09/17 14:15:31;;;;;;;4.82;0.90;;;;;;;;;;5074366;28;20049;-69
2022/09/17 14:17:57;;;;;;;6.80;0.90;;;;;;;;;;5075385;28;20103;-69
2022/09/17 14:20:24;;;;;;;5.20;0.68;;;;;;;;;;5074897;28;20490;-72
2022/09/17 14:22:57;;;;;;;4.35;0.60;;;;;;;;;;5057402;28;20517;-69
2022/09/17 14:25:28;;;;;;;4.63;0.80;;;;;;;;;;5065465;28;20397;-69
2022/09/17 14:28:02;;;;;;;3.03;0.57;;;;;;;;;;5057595;28;20489;-69
2022/09/17 14:30:32;;;;;;;4.72;0.80;;;;;;;;;;5041455;28;20044;-73
2022/09/17 14:32:58;;;;;;;4.47;0.85;;;;;;;;;;5067821;28;20036;-70
2022/09/17 14:35:27;;;;;;;5.32;0.70;;;;;;;;;;5075147;28;20123;-70
2022/09/17 14:37:58;;;;;;;4.88;1.08;;;;;;;;;;5073507;28;20048;-70
2022/09/17 14:40:25;;;;;;;5.82;0.77;;;;;;;;;;5075385;28;20085;-70
2022/09/17 14:42:54;;;;;;;5.35;0.70;;;;;;;;;;5073274;28;20041;-70
2022/09/17 14:45:31;;;;;;;6.03;0.60;;;;;;;;;;5090330;28;20121;-70
2022/09/17 14:48:16;;;;;;;4.13;0.70;;;;;;;;;;5073926;28;20041;-69
2022/09/17 14:50:42;;;;;;;5.88;0.70;;;;;;;;;;5068784;28;20041;-73
2022/09/17 14:53:14;;;;;;;3.08;0.65;;;;;;;;;;5037560;28;20512;-73
2022/09/17 14:55:40;;;;;;;7.03;0.95;;;;;;;;;;5070899;28;20044;-70
2022/09/17 14:58:24;;;;;;;7.10;0.90;;;;;;;;;;5056875;28;20036;-69